sensor_id;sensor_type;location;lat;lon;timestamp;P1;durP1;ratioP1;P2;durP2;ratioP2
69026;SDS011;56080;47.594;19.116;2023-07-08T00:09:14;6.90;;;3.70;;
69026;SDS011;56080;47.594;19.116;2023-07-08T00:19:17;6.40;;;3.60;;
69026;SDS011;56080;47.594;19.116;2023-07-08T00:29:18;7.20;;;3.70;;
69026;SDS011;56080;47.594;19.116;2023-07-08T00:39:23;6.60;;;3.10;;
69026;SDS011;56080;47.594;19.116;2023-07-08T00:49:36;7.70;;;3.30;;
69026;SDS011;56080;47.594;19.116;2023-07-08T00:59:25;7.60;;;3.80;;
69026;SDS011;56080;47.594;19.116;2023-07-08T01:09:22;6.00;;;3.30;;
69026;SDS011;56080;47.594;19.116;2023-07-08T01:29:23;7.00;;;3.40;;
69026;SDS011;56080;47.594;19.116;2023-07-08T01:39:28;6.30;;;3.10;;
69026;SDS011;56080;47.594;19.116;2023-07-08T01:49:26;6.50;;;3.40;;
69026;SDS011;56080;47.594;19.116;2023-07-08T01:59:28;5.80;;;3.00;;
69026;SDS011;56080;47.594;19.116;2023-07-08T02:09:29;6.50;;;3.00;;
69026;SDS011;56080;47.594;19.116;2023-07-08T02:19:32;7.70;;;3.50;;
69026;SDS011;56080;47.594;19.116;2023-07-08T02:29:32;6.40;;;3.50;;
69026;SDS011;56080;47.594;19.116;2023-07-08T02:39:34;7.80;;;3.50;;
69026;SDS011;56080;47.594;19.116;2023-07-08T02:49:34;6.60;;;3.70;;
69026;SDS011;56080;47.594;19.116;2023-07-08T02:59:38;6.30;;;3.60;;
69026;SDS011;56080;47.594;19.116;2023-07-08T03:09:40;6.10;;;3.40;;
69026;SDS011;56080;47.594;19.116;2023-07-08T03:19:39;8.20;;;3.90;;
69026;SDS011;56080;47.594;19.116;2023-07-08T03:29:40;7.90;;;3.90;;
69026;SDS011;56080;47.594;19.116;2023-07-08T03:39:42;7.00;;;3.20;;
69026;SDS011;56080;47.594;19.116;2023-07-08T03:49:42;5.90;;;3.10;;
69026;SDS011;56080;47.594;19.116;2023-07-08T03:59:44;6.80;;;3.60;;
69026;SDS011;56080;47.594;19.116;2023-07-08T04:19:47;7.00;;;3.40;;
69026;SDS011;56080;47.594;19.116;2023-07-08T04:29:48;6.30;;;3.20;;
69026;SDS011;56080;47.594;19.116;2023-07-08T04:39:49;6.70;;;3.30;;
69026;SDS011;56080;47.594;19.116;2023-07-08T04:49:53;6.50;;;3.50;;
69026;SDS011;56080;47.594;19.116;2023-07-08T04:59:52;6.90;;;3.20;;
69026;SDS011;56080;47.594;19.116;2023-07-08T05:09:54;6.00;;;3.40;;
69026;SDS011;56080;47.594;19.116;2023-07-08T05:19:59;7.40;;;3.60;;
69026;SDS011;56080;47.594;19.116;2023-07-08T05:29:58;6.70;;;3.40;;
69026;SDS011;56080;47.594;19.116;2023-07-08T05:40:02;7.00;;;3.60;;
69026;SDS011;56080;47.594;19.116;2023-07-08T05:50:04;7.30;;;3.70;;
69026;SDS011;56080;47.594;19.116;2023-07-08T06:00:05;5.70;;;3.30;;
69026;SDS011;56080;47.594;19.116;2023-07-08T06:10:08;6.80;;;3.90;;
69026;SDS011;56080;47.594;19.116;2023-07-08T06:20:12;6.90;;;3.50;;
69026;SDS011;56080;47.594;19.116;2023-07-08T06:30:12;6.80;;;3.90;;
69026;SDS011;56080;47.594;19.116;2023-07-08T06:40:15;6.60;;;4.00;;
69026;SDS011;56080;47.594;19.116;2023-07-08T06:50:17;6.80;;;3.60;;
69026;SDS011;56080;47.594;19.116;2023-07-08T07:00:22;6.90;;;3.60;;
69026;SDS011;56080;47.594;19.116;2023-07-08T07:10:23;7.80;;;3.50;;
69026;SDS011;56080;47.594;19.116;2023-07-08T07:20:27;6.50;;;3.50;;
69026;SDS011;56080;47.594;19.116;2023-07-08T07:30:28;7.80;;;3.40;;
69026;SDS011;56080;47.594;19.116;2023-07-08T07:40:32;6.60;;;3.10;;
69026;SDS011;56080;47.594;19.116;2023-07-08T07:50:36;7.20;;;3.60;;
69026;SDS011;56080;47.594;19.116;2023-07-08T08:00:40;7.60;;;3.60;;
69026;SDS011;56080;47.594;19.116;2023-07-08T08:10:44;7.20;;;3.30;;
69026;SDS011;56080;47.594;19.116;2023-07-08T08:20:44;6.50;;;3.60;;
69026;SDS011;56080;47.594;19.116;2023-07-08T08:30:49;6.10;;;3.40;;
69026;SDS011;56080;47.594;19.116;2023-07-08T08:40:51;5.80;;;2.90;;
69026;SDS011;56080;47.594;19.116;2023-07-08T08:51:01;6.70;;;3.80;;
69026;SDS011;56080;47.594;19.116;2023-07-08T09:00:58;6.40;;;3.30;;
69026;SDS011;56080;47.594;19.116;2023-07-08T09:11:13;6.50;;;3.30;;
69026;SDS011;56080;47.594;19.116;2023-07-08T09:21:04;5.50;;;3.20;;
69026;SDS011;56080;47.594;19.116;2023-07-08T09:31:05;6.20;;;3.40;;
69026;SDS011;56080;47.594;19.116;2023-07-08T09:51:09;5.80;;;3.30;;
69026;SDS011;56080;47.594;19.116;2023-07-08T10:01:21;6.00;;;3.20;;
69026;SDS011;56080;47.594;19.116;2023-07-08T10:11:30;5.80;;;3.30;;
69026;SDS011;56080;47.594;19.116;2023-07-08T10:31:46;6.80;;;3.30;;
69026;SDS011;56080;47.594;19.116;2023-07-08T11:21:35;7.10;;;4.00;;
69026;SDS011;56080;47.594;19.116;2023-07-08T11:31:34;6.20;;;3.70;;
69026;SDS011;56080;47.594;19.116;2023-07-08T11:51:41;6.10;;;3.50;;
69026;SDS011;56080;47.594;19.116;2023-07-08T12:11:45;6.10;;;3.50;;
69026;SDS011;56080;47.594;19.116;2023-07-08T12:21:45;5.60;;;3.30;;
69026;SDS011;56080;47.594;19.116;2023-07-08T12:31:47;6.90;;;3.50;;
69026;SDS011;56080;47.594;19.116;2023-07-08T12:41:50;6.50;;;3.70;;
69026;SDS011;56080;47.594;19.116;2023-07-08T12:51:51;6.80;;;3.70;;
69026;SDS011;56080;47.594;19.116;2023-07-08T13:01:55;6.10;;;3.50;;
69026;SDS011;56080;47.594;19.116;2023-07-08T13:11:56;6.20;;;3.50;;
69026;SDS011;56080;47.594;19.116;2023-07-08T13:21:58;5.60;;;3.20;;
69026;SDS011;56080;47.594;19.116;2023-07-08T13:32:04;5.90;;;3.40;;
69026;SDS011;56080;47.594;19.116;2023-07-08T13:42:02;6.10;;;3.20;;
69026;SDS011;56080;47.594;19.116;2023-07-08T13:52:15;5.90;;;3.20;;
69026;SDS011;56080;47.594;19.116;2023-07-08T14:02:26;6.50;;;3.50;;
69026;SDS011;56080;47.594;19.116;2023-07-08T14:12:09;6.00;;;3.40;;
69026;SDS011;56080;47.594;19.116;2023-07-08T14:22:22;5.70;;;3.40;;
69026;SDS011;56080;47.594;19.116;2023-07-08T14:32:18;5.40;;;3.20;;
69026;SDS011;56080;47.594;19.116;2023-07-08T14:42:20;6.20;;;3.30;;
69026;SDS011;56080;47.594;19.116;2023-07-08T14:52:18;6.00;;;3.60;;
69026;SDS011;56080;47.594;19.116;2023-07-08T15:02:28;5.60;;;3.30;;
69026;SDS011;56080;47.594;19.116;2023-07-08T15:12:25;6.50;;;3.40;;
69026;SDS011;56080;47.594;19.116;2023-07-08T15:22:27;5.30;;;3.00;;
69026;SDS011;56080;47.594;19.116;2023-07-08T15:32:37;6.00;;;3.50;;
69026;SDS011;56080;47.594;19.116;2023-07-08T15:42:30;6.10;;;3.40;;
69026;SDS011;56080;47.594;19.116;2023-07-08T15:52:32;5.70;;;3.30;;
69026;SDS011;56080;47.594;19.116;2023-07-08T16:02:38;5.90;;;3.50;;
69026;SDS011;56080;47.594;19.116;2023-07-08T16:12:37;5.50;;;3.40;;
69026;SDS011;56080;47.594;19.116;2023-07-08T16:22:39;5.70;;;3.30;;
69026;SDS011;56080;47.594;19.116;2023-07-08T16:32:45;5.90;;;3.30;;
69026;SDS011;56080;47.594;19.116;2023-07-08T16:42:44;5.20;;;3.30;;
69026;SDS011;56080;47.594;19.116;2023-07-08T16:52:46;5.80;;;2.90;;
69026;SDS011;56080;47.594;19.116;2023-07-08T17:12:51;7.20;;;3.40;;
69026;SDS011;56080;47.594;19.116;2023-07-08T17:22:53;5.80;;;3.30;;
69026;SDS011;56080;47.594;19.116;2023-07-08T17:32:58;5.60;;;3.20;;
69026;SDS011;56080;47.594;19.116;2023-07-08T17:42:59;6.00;;;2.90;;
69026;SDS011;56080;47.594;19.116;2023-07-08T18:03:03;7.20;;;4.70;;
69026;SDS011;56080;47.594;19.116;2023-07-08T18:13:11;6.30;;;3.90;;
69026;SDS011;56080;47.594;19.116;2023-07-08T18:23:08;5.70;;;3.50;;
69026;SDS011;56080;47.594;19.116;2023-07-08T18:33:10;6.90;;;3.90;;
69026;SDS011;56080;47.594;19.116;2023-07-08T18:53:13;6.20;;;3.60;;
69026;SDS011;56080;47.594;19.116;2023-07-08T19:13:21;6.70;;;3.60;;
69026;SDS011;56080;47.594;19.116;2023-07-08T19:23:23;7.20;;;4.00;;
69026;SDS011;56080;47.594;19.116;2023-07-08T19:33:22;7.70;;;3.90;;
69026;SDS011;56080;47.594;19.116;2023-07-08T19:43:22;7.10;;;4.10;;
69026;SDS011;56080;47.594;19.116;2023-07-08T19:53:24;6.90;;;3.70;;
69026;SDS011;56080;47.594;19.116;2023-07-08T20:03:28;8.00;;;4.00;;
69026;SDS011;56080;47.594;19.116;2023-07-08T20:13:30;8.10;;;4.10;;
69026;SDS011;56080;47.594;19.116;2023-07-08T20:23:30;8.50;;;4.20;;
69026;SDS011;56080;47.594;19.116;2023-07-08T20:33:34;7.70;;;3.90;;
69026;SDS011;56080;47.594;19.116;2023-07-08T20:43:37;8.20;;;4.10;;
69026;SDS011;56080;47.594;19.116;2023-07-08T20:53:45;8.30;;;4.70;;
69026;SDS011;56080;47.594;19.116;2023-07-08T21:03:41;7.50;;;4.50;;
69026;SDS011;56080;47.594;19.116;2023-07-08T21:13:41;7.40;;;4.60;;
69026;SDS011;56080;47.594;19.116;2023-07-08T21:23:43;8.30;;;4.50;;
69026;SDS011;56080;47.594;19.116;2023-07-08T21:33:44;7.80;;;4.60;;
69026;SDS011;56080;47.594;19.116;2023-07-08T21:43:46;7.50;;;4.80;;
69026;SDS011;56080;47.594;19.116;2023-07-08T21:54:00;7.70;;;4.80;;
69026;SDS011;56080;47.594;19.116;2023-07-08T22:03:57;8.10;;;5.00;;
69026;SDS011;56080;47.594;19.116;2023-07-08T22:13:54;7.50;;;4.40;;
69026;SDS011;56080;47.594;19.116;2023-07-08T22:23:58;8.10;;;4.60;;
69026;SDS011;56080;47.594;19.116;2023-07-08T22:34:01;7.60;;;4.80;;
69026;SDS011;56080;47.594;19.116;2023-07-08T22:43:57;7.10;;;4.60;;
69026;SDS011;56080;47.594;19.116;2023-07-08T22:54:02;7.40;;;4.80;;
69026;SDS011;56080;47.594;19.116;2023-07-08T23:04:07;7.10;;;4.50;;
69026;SDS011;56080;47.594;19.116;2023-07-08T23:14:09;8.50;;;4.80;;
69026;SDS011;56080;47.594;19.116;2023-07-08T23:24:05;7.40;;;4.80;;
69026;SDS011;56080;47.594;19.116;2023-07-08T23:34:09;8.80;;;4.90;;
69026;SDS011;56080;47.594;19.116;2023-07-08T23:44:16;8.20;;;5.30;;
69026;SDS011;56080;47.594;19.116;2023-07-08T23:54:18;7.40;;;4.60;;
